Terminal Aerodrome Forecast
Issued by NWS

Home | Current Version | Previous Version | Text Only | Print | Product List | Glossary On
Versions: 1 2 3 4 5 6 7 8 9 10 11 12 13 14 15 16 17 18 19 20 21 22 23 24 25 26 27 28 29 30 31 32 33 34 35 36
000
FTAK31 PANC 181006 AAA
TAFAAQ
TAF AMD
PAAQ 181006Z 1810/1906 34006KT P6SM BKN010 OVC050
     FM181200 VRB03KT 1SM BR BKN005
     FM181900 34003KT P6SM SCT005=

USA.gov is the U.S. government's official web portal to all federal, state and local government web resources and services.